• Join FlightAware (Why Join?)
  • Login
  • US Flag 
06:12PM EDT


 

Airport Tracker/Info


-or-


 

Live Flight TrackerFlight Track Log ✈ UPS238 ✈ 06-Sep-2013 ✈ EGSS / STN - KSDF

Flight Track Log - Related Links

Times and Time Zones

All times are in EDT time to prevent confusion due to time zone crossing. See the UPS238 flight status page for this flight to view local times or setup timezone preferences in your user account.

Time Position Orientation Groundspeed Altitude Reporting Facility
EDT Latitude Longitude Course Direction KTS MPH feet Rate Location/Type
07:54PM 54.9419 -17.1444 285° West  Level Estimated
07:55PM 54.9988 -17.3331 298° West  Level FlightAware Approximate
07:56PM 55.0181 -17.5438 280° West  Level Estimated
07:57PM 55.0740 -17.7338 297° West  Level FlightAware Approximate
07:58PM 55.1296 -17.9243 297° West  Level FlightAware Approximate
07:59PM 55.1850 -18.1153 297° West  Level FlightAware Approximate
08:00PM 55.2400 -18.3069 297° West  Level FlightAware Approximate
08:01PM 55.2947 -18.4990 297° West  Level FlightAware Approximate
08:02PM 55.3492 -18.6916 296° West  Level FlightAware Approximate
08:03PM 55.4033 -18.8848 296° West  Level FlightAware Approximate
08:04PM 55.4571 -19.0784 296° West  Level FlightAware Approximate
08:05PM 55.5106 -19.2726 296° West  Level FlightAware Approximate
08:06PM 55.5639 -19.4674 296° West  Level FlightAware Approximate
08:07PM 55.6167 -19.6626 296° West  Level FlightAware Approximate
08:08PM 55.6693 -19.8584 296° West  Level FlightAware Approximate
08:09PM 55.7216 -20.0547 295° West  Level FlightAware Approximate
08:10PM 55.7736 -20.2515 295° West  Level FlightAware Approximate
08:11PM 55.8252 -20.4489 295° West  Level FlightAware Approximate
08:12PM 55.8766 -20.6467 295° West  Level FlightAware Approximate
08:13PM 55.9276 -20.8451 295° West  Level FlightAware Approximate
08:14PM 55.9393 -21.0626 274° West  Level Estimated
08:15PM 55.9873 -21.2637 293° West  Level FlightAware Approximate
08:15PM 58.0000 -20.0000 274° West 423 487 32,000  Level ETMS Enhanced Traffic Management System
08:16PM 56.0350 -21.4653 293° West  Level FlightAware Approximate
08:17PM 56.0823 -21.6674 293° West  Level FlightAware Approximate
08:18PM 56.1293 -21.8700 293° West  Level FlightAware Approximate
08:19PM 56.1760 -22.0731 293° West  Level FlightAware Approximate
08:20PM 56.2223 -22.2767 292° West  Level FlightAware Approximate
08:21PM 58.0515 -21.5522 273° West 423 487 32,000  Level FlightAware Transoceanic
08:22PM 58.0573 -21.7743 273° West 423 487 32,000  Level FlightAware Transoceanic
08:23PM 58.0627 -21.9965 273° West 423 487 32,000  Level FlightAware Transoceanic
08:24PM 58.0678 -22.2187 272° West 423 487 32,000  Level FlightAware Transoceanic
08:25PM 58.0724 -22.4410 272° West 423 487 32,000  Level FlightAware Transoceanic
08:26PM 58.0767 -22.6633 272° West 423 487 32,000  Level FlightAware Transoceanic
08:27PM 58.0806 -22.8857 272° West 423 487 32,000  Level FlightAware Transoceanic
08:28PM 58.0841 -23.1081 272° West 423 487 32,000  Level FlightAware Transoceanic
08:29PM 58.0872 -23.3306 271° West 423 487 32,000  Level FlightAware Transoceanic
08:30PM 58.0899 -23.5531 271° West 423 487 32,000  Level FlightAware Transoceanic
08:31PM 58.0922 -23.7757 271° West 423 487 32,000  Level FlightAware Transoceanic
08:32PM 58.0942 -23.9982 271° West 423 487 32,000  Level FlightAware Transoceanic
08:33PM 58.0957 -24.2208 271° West 423 487 32,000  Level FlightAware Transoceanic
08:34PM 58.0969 -24.4434 270° West 423 487 32,000  Level FlightAware Transoceanic
08:35PM 58.0976 -24.6661 270° West 423 487 32,000  Level FlightAware Transoceanic
08:36PM 58.0980 -24.8887 270° West 423 487 32,000  Level FlightAware Transoceanic
08:37PM 58.0980 -25.1113 270° West 423 487 32,000  Level FlightAware Transoceanic
08:38PM 58.0976 -25.3339 270° West 423 487 32,000  Level FlightAware Transoceanic
08:39PM 58.0969 -25.5566 270° West 423 487 32,000  Level FlightAware Transoceanic
08:40PM 58.0957 -25.7792 269° West 423 487 32,000  Level FlightAware Transoceanic
08:41PM 58.0942 -26.0018 269° West 423 487 32,000  Level FlightAware Transoceanic
08:42PM 58.0922 -26.2243 269° West 423 487 32,000  Level FlightAware Transoceanic
08:43PM 58.0899 -26.4469 269° West 423 487 32,000  Level FlightAware Transoceanic
08:44PM 58.0872 -26.6694 269° West 423 487 32,000  Level FlightAware Transoceanic
08:45PM 58.0841 -26.8919 268° West 423 487 32,000  Level FlightAware Transoceanic
08:46PM 58.0806 -27.1143 268° West 423 487 32,000  Level FlightAware Transoceanic
08:47PM 58.0767 -27.3367 268° West 423 487 32,000  Level FlightAware Transoceanic
08:48PM 58.0724 -27.5590 268° West 423 487 32,000  Level FlightAware Transoceanic
08:49PM 58.0678 -27.7813 268° West 423 487 32,000  Level FlightAware Transoceanic
08:50PM 58.0627 -28.0035 267° West 423 487 32,000  Level FlightAware Transoceanic
08:51PM 58.0573 -28.2257 267° West 423 487 32,000  Level FlightAware Transoceanic
08:52PM 58.0515 -28.4478 267° West 423 487 32,000  Level FlightAware Transoceanic
08:53PM 58.0453 -28.6698 267° West 423 487 32,000  Level FlightAware Transoceanic
08:54PM 58.0387 -28.8917 267° West 423 487 32,000  Level FlightAware Transoceanic
08:55PM 58.0317 -29.1136 267° West 423 487 32,000  Level FlightAware Transoceanic
08:56PM 58.0244 -29.3353 266° West 423 487 32,000  Level FlightAware Transoceanic
08:57PM 58.0166 -29.5570 266° West 423 487 32,000  Level FlightAware Transoceanic
08:58PM 58.0085 -29.7785 266° West 423 487 32,000  Level FlightAware Transoceanic
08:59PM 57.9996 -30.0089 266° West  Level FlightAware Approximate
09:00PM 58.0024 -30.0172 285° West  Level FlightAware Approximate
09:01PM 58.0341 -30.2404 285° West  Level FlightAware Approximate
09:02PM 58.0653 -30.4639 285° West  Level FlightAware Approximate
09:03PM 58.0962 -30.6879 285° West  Level FlightAware Approximate
09:04PM 58.1266 -30.9122 285° West  Level FlightAware Approximate
09:05PM 58.1567 -31.1370 284° West  Level FlightAware Approximate
09:06PM 58.1864 -31.3621 284° West  Level FlightAware Approximate
09:07PM 58.2156 -31.5875 284° West  Level FlightAware Approximate
09:08PM 58.2445 -31.8134 284° West  Level FlightAware Approximate
09:09PM 58.2730 -32.0396 284° West  Level FlightAware Approximate
09:10PM 58.3010 -32.2662 283° West  Level FlightAware Approximate
09:11PM 58.3287 -32.4931 283° West  Level FlightAware Approximate
09:12PM 58.3560 -32.7204 283° West  Level FlightAware Approximate
09:13PM 58.3829 -32.9480 283° West  Level FlightAware Approximate
09:14PM 58.4093 -33.1760 283° West  Level FlightAware Approximate
09:15PM 58.4354 -33.4043 282° West  Level FlightAware Approximate
09:16PM 58.4610 -33.6330 282° West  Level FlightAware Approximate
09:17PM 58.4863 -33.8619 282° West  Level FlightAware Approximate
09:18PM 58.5111 -34.0913 282° West  Level FlightAware Approximate
09:19PM 58.5355 -34.3209 282° West  Level FlightAware Approximate
09:20PM 58.5595 -34.5508 281° West  Level FlightAware Approximate
09:21PM 58.5831 -34.7811 281° West  Level FlightAware Approximate
09:22PM 58.6063 -35.0117 281° West  Level FlightAware Approximate
09:23PM 58.6291 -35.2425 281° West  Level FlightAware Approximate
09:24PM 58.6515 -35.4737 281° West  Level FlightAware Approximate
09:25PM 58.6734 -35.7052 280° West  Level FlightAware Approximate
09:26PM 58.6949 -35.9370 280° West  Level FlightAware Approximate
09:27PM 58.7159 -36.1691 280° West  Level FlightAware Approximate
09:28PM 58.7365 -36.4014 280° West  Level FlightAware Approximate
09:29PM 58.7567 -36.6340 280° West  Level FlightAware Approximate
09:29PM 58.7000 -35.9833 279° West 420 483 32,000  Level Gander Center
09:30PM 58.7765 -36.8669 279° West  Level FlightAware Approximate
09:30PM 58.7333 -36.2000 287° West 420 483 32,000  Level Gander Center
09:31PM 58.7958 -37.1001 279° West  Level FlightAware Approximate
09:31PM 58.7333 -36.4000 270° West 420 483 32,000  Level Gander Center
09:32PM 58.8148 -37.3335 279° West  Level FlightAware Approximate
09:32PM 58.7500 -36.6167 279° West 420 483 32,000  Level Gander Center
09:33PM 58.8333 -37.5671 279° West  Level FlightAware Approximate
09:33PM 58.7833 -36.8333 287° West 420 483 32,000  Level Gander Center
09:34PM 58.8514 -37.8010 279° West  Level FlightAware Approximate
09:34PM 58.7833 -37.0667 270° West 420 483 32,000  Level Gander Center
09:35PM 58.8167 -37.2833 287° West 420 483 32,000  Level Gander Center
09:36PM 58.8333 -37.5000 279° West 420 483 32,000  Level Gander Center
09:37PM 58.8500 -37.7333 278° West 420 483 32,000  Level Gander Center
09:38PM 58.8667 -37.9500 279° West 420 483 32,000  Level Gander Center
09:39PM 58.8833 -38.1667 279° West 430 495 32,000  Level Gander Center
09:40PM 58.9000 -38.4000 278° West 430 495 32,000  Level Gander Center
09:41PM 58.9167 -38.6167 279° West 430 495 32,000  Level Gander Center
09:42PM 58.9333 -38.8500 278° West 420 483 32,000  Level Gander Center
09:43PM 58.9333 -39.0500 270° West 420 483 32,000  Level Gander Center
09:44PM 58.9500 -39.2667 279° West 420 483 32,000  Level Gander Center
09:45PM 58.9833 -39.4833 287° West 420 483 32,000  Level Gander Center
09:46PM 58.9833 -39.7167 270° West 420 483 32,000  Level Gander Center
09:47PM 59.0000 -39.9500 278° West 420 483 32,000  Level Gander Center
09:48PM 59.0000 -40.1500 270° West 410 472 32,000  Level Gander Center
09:49PM 59.0167 -40.3667 279° West 410 472 32,000  Level Gander Center
09:50PM 59.0167 -40.6000 270° West 410 472 32,000  Level Gander Center
09:51PM 59.0167 -40.8333 270° West 410 472 32,000  Level Gander Center
09:52PM 59.0333 -41.0333 279° West 410 472 32,000  Level Gander Center
09:53PM 59.0333 -41.2667 270° West 420 483 32,000  Level Gander Center
09:54PM 59.0500 -41.4833 279° West 420 483 32,000  Level Gander Center
09:55PM 59.0500 -41.7000 270° West 420 483 32,000  Level Gander Center
09:56PM 59.0500 -41.9333 270° West 420 483 32,000  Level Gander Center
09:57PM 59.0667 -42.1500 279° West 420 483 32,000  Level Gander Center
09:58PM 59.0667 -42.3833 270° West 420 483 32,000  Level Gander Center
09:59PM 59.0833 -42.6167 278° West 420 483 32,000  Level Gander Center
10:00PM 59.0833 -42.8500 270° West 430 495 32,000  Level Gander Center
10:01PM 59.0833 -43.0833 270° West 430 495 32,000  Level Gander Center
10:02PM 59.0833 -43.3000 270° West 430 495 32,000  Level Gander Center
10:03PM 59.0833 -43.5333 270° West 430 495 32,000  Level Gander Center
10:04PM 59.0833 -43.7667 270° West 430 495 32,000  Level Gander Center
10:05PM 59.1000 -44.0000 278° West 440 506 32,000  Level Gander Center
10:06PM 59.1000 -44.2333 270° West 440 506 32,000  Level Gander Center
10:07PM 59.0833 -44.4667 262° West 440 506 32,000  Level Gander Center
10:08PM 59.1000 -44.7000 278° West 440 506 32,000  Level Gander Center
10:09PM 59.1000 -44.9500 270° West 450 518 32,000  Level Gander Center
10:10PM 59.1000 -45.1833 270° West 450 518 32,000  Level Gander Center
10:11PM 59.0833 -45.4333 263° West 450 518 32,000  Level Gander Center
10:12PM 59.1000 -45.6833 278° West 450 518 32,000  Level Gander Center
10:13PM 59.1000 -45.9167 270° West 460 529 32,000  Level Gander Center
10:14PM 59.0833 -46.1500 262° West 460 529 32,000  Level Gander Center
10:15PM 59.0833 -46.4167 270° West 460 529 32,000  Level Gander Center
10:16PM 59.0833 -46.6500 270° West 460 529 32,000  Level Gander Center
10:17PM 59.0833 -46.9167 270° West 460 529 32,000  Level Gander Center
10:18PM 59.0833 -47.1500 270° West 450 518 32,000  Level Gander Center
10:19PM 59.0667 -47.3833 262° West 460 529 32,000  Level Gander Center
10:20PM 59.0667 -47.6500 270° West 450 518 32,000  Level Gander Center
10:21PM 59.0667 -47.8667 270° West 450 518 32,000  Level Gander Center
10:22PM 59.0667 -48.1000 270° West 450 518 32,000  Level Gander Center
10:23PM 59.0500 -48.3667 263° West 450 518 32,000  Level Gander Center
10:24PM 59.0333 -48.6000 262° West 450 518 32,000  Level Gander Center
10:25PM 59.0500 -48.8333 278° West 450 518 32,000  Level Gander Center
10:26PM 59.0333 -49.0667 262° West 450 518 32,000  Level Gander Center
10:27PM 59.0167 -49.3333 263° West 440 506 32,000  Level Gander Center
10:28PM 59.0167 -49.5667 270° West 440 506 32,000  Level Gander Center
10:29PM 59.0167 -49.8000 270° West 450 518 32,000  Level Gander Center
10:30PM 58.9833 -50.0333 255° West 440 506 32,000  Level Gander Center
10:31PM 58.9500 -50.2667 255° West 440 506 32,000  Level Gander Center
10:32PM 58.9167 -50.4833 253° West 440 506 32,000  Level Gander Center
10:33PM 58.8833 -50.7167 255° West 440 506 32,000  Level Gander Center
10:34PM 58.8500 -50.9167 252° West 440 506 32,000  Level Gander Center
10:35PM 58.8000 -51.1667 249° West 440 506 32,000  Level Gander Center
10:36PM 58.7667 -51.4000 255° West 440 506 32,000  Level Gander Center
10:37PM 58.7333 -51.6000 252° West 440 506 32,000  Level Gander Center
10:38PM 58.7000 -51.8333 255° West 440 506 32,000  Level Gander Center
10:39PM 58.6500 -52.0667 248° West 440 506 32,000  Level Gander Center
10:40PM 58.6167 -52.3000 255° West 440 506 32,000  Level Gander Center
10:41PM 58.5833 -52.5333 255° West 440 506 32,000  Level Gander Center
10:42PM 58.5500 -52.7500 254° West 440 506 32,000  Level Gander Center
10:44PM 58.4667 -53.1500 248° West 430 495 32,000  Level Gander Center
10:46PM 58.3969 -53.5334 251° West  Level FlightAware Approximate
10:50PM 58.2167 -54.5000 249° West 420 483 32,000  Level Gander Center
10:51PM 58.1667 -54.7000 245° Southwest 420 483 32,000  Level Gander Center
10:52PM 58.1333 -54.9333 255° West 420 483 32,000  Level Gander Center
10:53PM 58.1064 -55.0517 249° West  Level FlightAware Approximate
10:53PM 58.1000 -55.1333 253° West 420 483 32,000  Level Gander Center
10:54PM 58.0634 -55.2665 249° West  Level FlightAware Approximate
10:54PM 58.0500 -55.3167 243° Southwest 420 483 32,000  Level Gander Center
10:55PM 58.0201 -55.4809 249° West  Level FlightAware Approximate
10:55PM 58.0167 -55.5167 253° West 420 483 32,000  Level Gander Center
10:56PM 57.9764 -55.6946 249° West  Level FlightAware Approximate
10:56PM 57.9667 -55.7500 248° West 420 483 32,000  Level Gander Center
10:57PM 57.9333 -55.9333 251° West 420 483 32,000  Level Gander Center
10:58PM 57.8833 -56.1333 245° Southwest 420 483 32,000  Level Gander Center
10:59PM 57.8500 -56.3333 253° West 420 483 32,000  Level Gander Center
11:00PM 57.8000 -56.5500 247° West 420 483 32,000  Level Gander Center
11:01PM 57.7667 -56.7500 253° West 420 483 32,000  Level Gander Center
11:02PM 57.7167 -56.9333 243° Southwest 420 483 32,000  Level Gander Center
11:03PM 57.6667 -57.1333 245° Southwest 420 483 32,000  Level Gander Center
11:04PM 57.6333 -57.3500 254° West 420 483 32,000  Level Gander Center
11:05PM 57.5833 -57.5500 245° Southwest 420 483 32,000  Level Gander Center
11:06PM 57.5333 -57.7333 243° Southwest 420 483 32,000  Level Gander Center
11:07PM 57.4667 -57.9000 233° Southwest 430 495 32,000  Level Gander Center
11:08PM 57.4000 -58.1000 238° Southwest 420 483 32,000 660 Level Gander Center
11:09PM 57.3333 -58.2500 231° Southwest 420 483 33,400 1,200 Climbing Gander Center
11:10PM 57.2500 -58.4167 227° Southwest 410 472 34,400 900 Climbing Gander Center
11:11PM 57.2000 -58.6000 243° Southwest 420 483 35,300 900 Climbing Gander Center
11:12PM 57.1167 -58.6833 209° Southwest 430 495 36,000 360 Climbing Montreal Center
11:13PM 57.0667 -58.8833 245° Southwest 410 472 36,000  Level Montreal Center
11:14PM 57.0000 -59.0333 231° Southwest 420 483 36,000  Level Montreal Center
11:15PM 56.9167 -59.2333 233° Southwest 430 495 36,000  Level Montreal Center
11:16PM 56.8333 -59.3833 225° Southwest 440 506 36,000  Level Montreal Center
11:17PM 56.7833 -59.5667 244° Southwest 440 506 36,000  Level Montreal Center
11:18PM 56.7000 -59.7333 228° Southwest 450 518 36,000  Level Montreal Center
11:19PM 56.6167 -59.9167 230° Southwest 450 518 36,000  Level Montreal Center
11:20PM 56.5333 -60.1167 233° Southwest 440 506 36,000  Level Montreal Center
11:21PM 56.4667 -60.2667 231° Southwest 440 506 36,000  Level Montreal Center
11:22PM 56.3833 -60.4500 231° Southwest 440 506 36,000  Level Montreal Center
11:23PM 56.3000 -60.6167 228° Southwest 430 495 36,000  Level Montreal Center
11:24PM 56.2500 -60.7833 242° Southwest 430 495 36,000  Level Montreal Center
11:25PM 56.1667 -60.9500 228° Southwest 430 495 36,000  Level Montreal Center
11:26PM 56.1000 -61.1333 237° Southwest 430 495 36,000  Level Montreal Center
11:27PM 56.0167 -61.2833 225° Southwest 430 495 36,000  Level Montreal Center
11:28PM 55.9333 -61.4667 231° Southwest 430 495 36,000  Level Montreal Center
11:29PM 55.8667 -61.6167 232° Southwest 430 495 36,000  Level Montreal Center
11:30PM 55.7833 -61.8000 231° Southwest 430 495 36,000  Level Montreal Center
11:31PM 55.7167 -61.9333 228° Southwest 430 495 36,000  Level Montreal Center
11:32PM 55.6333 -62.1167 231° Southwest 430 495 36,000  Level Montreal Center
11:33PM 55.5667 -62.2667 232° Southwest 430 495 36,000  Level Montreal Center
11:34PM 55.4833 -62.4500 231° Southwest 430 495 36,000  Level Montreal Center
11:35PM 55.4000 -62.6000 226° Southwest 430 495 36,000  Level Montreal Center
11:36PM 55.3333 -62.7667 235° Southwest 440 506 36,000  Level Montreal Center
11:37PM 55.2500 -62.9500 231° Southwest 440 506 36,000  Level Montreal Center
11:38PM 55.1500 -63.1000 221° Southwest 440 506 36,000  Level Montreal Center
11:39PM 55.0833 -63.2667 235° Southwest 440 506 36,000  Level Montreal Center
11:40PM 55.0000 -63.4167 226° Southwest 440 506 36,000  Level Montreal Center
11:41PM 54.9167 -63.5833 229° Southwest 440 506 36,000  Level Montreal Center
11:42PM 54.8500 -63.7167 229° Southwest 440 506 36,000  Level Montreal Center
11:43PM 54.7667 -63.9000 232° Southwest 440 506 36,000  Level Montreal Center
11:44PM 54.6833 -64.0667 229° Southwest 430 495 36,000  Level Montreal Center
11:45PM 54.6000 -64.2167 226° Southwest 430 495 36,000  Level Montreal Center
11:46PM 54.5167 -64.3833 229° Southwest 430 495 36,000  Level Montreal Center
11:47PM 54.4500 -64.5167 229° Southwest 430 495 36,000  Level Montreal Center
11:48PM 54.3667 -64.6667 226° Southwest 430 495 36,000  Level Montreal Center
11:49PM 54.2667 -64.8333 224° Southwest 430 495 36,000  Level Montreal Center
11:50PM 54.2000 -64.9667 230° Southwest 410 472 36,000  Level Montreal Center
11:51PM 54.1333 -65.1333 236° Southwest 430 495 36,000  Level Montreal Center
11:52PM 54.0500 -65.3000 230° Southwest 430 495 36,000  Level Montreal Center
11:53PM 53.9500 -65.4333 218° Southwest 430 495 36,000  Level Montreal Center
11:54PM 53.8833 -65.5667 230° Southwest 430 495 36,000  Level Montreal Center
11:55PM 53.8000 -65.7333 230° Southwest 430 495 36,000  Level Montreal Center
11:56PM 53.7167 -65.8667 223° Southwest 420 483 36,000  Level Montreal Center
11:57PM 53.6333 -66.0333 230° Southwest 420 483 36,000  Level Montreal Center
11:58PM 53.5667 -66.1667 230° Southwest 430 495 36,000  Level Montreal Center
11:59PM 53.4833 -66.3000 224° Southwest 420 483 36,000  Level Montreal Center
12:00AM 53.4000 -66.4500 227° Southwest 410 472 36,000  Level Montreal Center
12:01AM 53.3167 -66.5833 224° Southwest 410 472 36,000  Level Montreal Center
12:02AM 53.2500 -66.7167 230° Southwest 410 472 36,000  Level Montreal Center
12:03AM 53.1667 -66.8833 230° Southwest 420 483 36,000  Level Montreal Center
12:04AM 53.0833 -67.0000 220° Southwest 420 483 36,000  Level Montreal Center
12:05AM 53.0000 -67.1333 224° Southwest 410 472 36,000  Level Montreal Center
12:06AM 52.9167 -67.3000 230° Southwest 410 472 36,000  Level Montreal Center
12:07AM 52.8500 -67.4167 227° Southwest 410 472 36,000  Level Montreal Center
12:08AM 52.7500 -67.5500 219° Southwest 420 483 36,000  Level Montreal Center
12:09AM 52.6833 -67.7000 234° Southwest 410 472 36,000  Level Montreal Center
12:10AM 52.6000 -67.8333 224° Southwest 410 472 36,000  Level Montreal Center
12:11AM 52.5333 -67.9500 227° Southwest 410 472 36,000  Level Montreal Center
12:12AM 52.4333 -68.1167 225° Southwest 410 472 36,000  Level Montreal Center
12:13AM 52.3667 -68.2333 227° Southwest 400 460 36,000  Level Montreal Center
12:14AM 52.2667 -68.3667 219° Southwest 410 472 36,000  Level Montreal Center
12:15AM 52.1833 -68.4833 221° Southwest 410 472 36,000  Level Montreal Center
12:16AM 52.1167 -68.6333 234° Southwest 410 472 36,000  Level Montreal Center
12:17AM 52.0333 -68.7667 225° Southwest 410 472 36,000  Level Montreal Center
12:18AM 51.9500 -68.8833 221° Southwest 410 472 36,000  Level Montreal Center
12:19AM 51.8667 -69.0000 221° Southwest 410 472 36,000  Level Montreal Center
12:20AM 51.7833 -69.1500 228° Southwest 420 483 36,000  Level Montreal Center
12:21AM 51.7167 -69.2667 227° Southwest 400 460 36,000  Level Montreal Center
12:22AM 51.6167 -69.4167 223° Southwest 400 460 36,000  Level Montreal Center
12:23AM 51.5500 -69.5500 231° Southwest 400 460 36,000  Level Montreal Center
12:24AM 51.4667 -69.6667 221° Southwest 400 460 36,000  Level Montreal Center
12:25AM 51.3667 -69.7833 216° Southwest 400 460 36,000  Level Montreal Center
12:26AM 51.3167 -69.9000 236° Southwest 390 449 36,000  Level Montreal Center
12:27AM 51.2333 -70.0167 221° Southwest 400 460 36,000  Level Montreal Center
12:28AM 51.1333 -70.1667 223° Southwest 410 472 36,000  Level Montreal Center
12:29AM 51.0667 -70.2833 228° Southwest 410 472 36,000  Level Montreal Center
12:30AM 50.9667 -70.4333 223° Southwest 420 483 36,000  Level Montreal Center
12:31AM 50.8833 -70.5500 221° Southwest 420 483 36,000  Level Montreal Center
12:32AM 50.8000 -70.6667 222° Southwest 420 483 36,000  Level Montreal Center
12:33AM 50.7167 -70.8000 225° Southwest 420 483 36,000  Level Montreal Center
12:34AM 50.6333 -70.9167 222° Southwest 420 483 36,000  Level Montreal Center
12:35AM 50.5333 -71.0667 224° Southwest 420 483 36,000  Level Montreal Center
12:36AM 50.4667 -71.1833 228° Southwest 420 483 36,000  Level Montreal Center
12:37AM 50.3667 -71.3167 220° Southwest 420 483 36,000  Level Montreal Center
12:38AM 50.2833 -71.4333 222° Southwest 420 483 36,000  Level Montreal Center
12:39AM 50.1833 -71.5500 217° Southwest 420 483 36,000  Level Montreal Center
12:40AM 50.1167 -71.6833 232° Southwest 430 495 36,000  Level Montreal Center
12:41AM 50.0167 -71.8333 224° Southwest 430 495 36,000  Level Montreal Center
12:47AM 49.4630 -72.6140 224° Southwest 451 519 36,000  Level FlightAware
12:48AM 49.4100 -72.6860 221° Southwest 450 518 36,000  Level FlightAware
12:48AM 49.4070 -72.6910 227° Southwest 450 518 36,000  Level FlightAware
12:49AM 49.3570 -72.7600 222° Southwest 450 518 36,000  Level FlightAware
12:50AM 49.3700 -72.7420 42° Northeast 450 518 36,000  Level FlightAware
12:50AM 49.1640 -73.0210 222° Southwest 449 517 36,000  Level FlightAware
12:51AM 49.1100 -73.0990 223° Southwest 446 513 36,000  Level FlightAware
12:51AM 49.0570 -73.1760 224° Southwest 446 513 36,000  Level FlightAware
12:52AM 48.9810 -73.2840 223° Southwest 446 513 36,000  Level FlightAware
12:53AM 48.9110 -73.3840 223° Southwest 444 511 36,000  Level FlightAware
12:54AM 48.8650 -73.4490 223° Southwest 444 511 36,000  Level FlightAware
12:54AM 48.8190 -73.5140 223° Southwest 444 511 36,000  Level FlightAware
12:55AM 48.7360 -73.6310 223° Southwest 442 509 36,000  Level FlightAware
12:56AM 48.6900 -73.6950 223° Southwest 442 509 36,000  Level FlightAware
12:56AM 48.6440 -73.7600 223° Southwest 442 509 36,000  Level FlightAware
12:57AM 48.5740 -73.8560 222° Southwest 823 947 36,000  Level FlightAware
12:57AM 48.5280 -73.9200 223° Southwest 442 509 36,000  Level FlightAware
12:58AM 48.4570 -74.0190 223° Southwest 443 510 36,000  Level FlightAware
12:59AM 48.4060 -74.0880 222° Southwest 444 511 36,000  Level FlightAware
12:59AM 48.3510 -74.1650 223° Southwest 444 511 36,000  Level FlightAware
01:00AM 48.2990 -74.2360 222° Southwest 445 512 36,000  Level FlightAware
01:00AM 48.2430 -74.3120 222° Southwest 446 513 36,000  Level FlightAware
01:01AM 48.1920 -74.3820 222° Southwest 447 514 36,000  Level FlightAware
01:02AM 48.1360 -74.4580 222° Southwest 449 517 36,000  Level FlightAware
01:02AM 48.0850 -74.5270 222° Southwest 450 518 36,000  Level FlightAware
01:03AM 48.0310 -74.6000 222° Southwest 451 519 36,000  Level FlightAware
01:03AM 47.9760 -74.6740 222° Southwest 452 520 36,000  Level FlightAware
01:04AM 47.9220 -74.7460 222° Southwest 454 522 36,000  Level FlightAware
01:05AM 47.8690 -74.8170 222° Southwest 455 524 36,000  Level FlightAware
01:05AM 47.8170 -74.8870 222° Southwest 455 524 36,000  Level FlightAware
01:06AM 47.7480 -74.9780 222° Southwest 454 522 36,000  Level FlightAware
01:06AM 47.7100 -75.0290 222° Southwest 454 522 36,000  Level FlightAware
01:07AM 47.6250 -75.1410 222° Southwest 458 527 36,000  Level FlightAware
01:08AM 47.5670 -75.2180 222° Southwest 458 527 36,000  Level FlightAware
01:08AM 47.4940 -75.3140 222° Southwest 469 540 36,000  Level FlightAware
01:09AM 47.4400 -75.3840 221° Southwest 473 544 36,000  Level FlightAware
01:10AM 47.3870 -75.4520 221° Southwest 471 542 36,000  Level FlightAware
01:10AM 47.3310 -75.5260 222° Southwest 473 544 36,000  Level FlightAware
01:11AM 47.2950 -75.5710 220° Southwest 473 544 36,000  Level FlightAware
01:12AM 47.1850 -75.7140 221° Southwest 476 548 36,000  Level FlightAware
01:12AM 47.1330 -75.7820 222° Southwest 476 548 36,000  Level FlightAware
01:13AM 47.0770 -75.8540 221° Southwest 477 549 36,000  Level FlightAware
01:13AM 47.0130 -75.9360 221° Southwest 478 550 36,000  Level FlightAware
01:14AM 46.9600 -76.0030 221° Southwest 479 551 36,000  Level FlightAware
01:14AM 46.8920 -76.0900 221° Southwest 480 552 36,000  Level FlightAware
01:15AM 46.8500 -76.1420 220° Southwest 481 554 36,000  Level FlightAware
01:16AM 46.7750 -76.2380 221° Southwest 483 556 36,000  Level FlightAware
01:16AM 46.7140 -76.3140 221° Southwest 477 549 36,000  Level FlightAware
01:17AM 46.6580 -76.3850 221° Southwest 476 548 36,000  Level FlightAware
01:18AM 46.5870 -76.4740 221° Southwest 481 554 36,000  Level FlightAware
01:18AM 46.5320 -76.5420 220° Southwest 481 554 36,000  Level FlightAware
01:19AM 46.4710 -76.6180 221° Southwest 480 552 36,000  Level FlightAware
01:19AM 46.4120 -76.6910 220° Southwest 480 552 36,000  Level FlightAware
01:20AM 46.3550 -76.7620 221° Southwest 480 552 36,000  Level FlightAware
01:20AM 46.3040 -76.8250 220° Southwest 481 554 36,000  Level FlightAware
01:21AM 46.2350 -76.9090 220° Southwest 481 554 36,000  Level FlightAware
01:22AM 46.1830 -76.9730 220° Southwest 480 552 36,000  Level FlightAware
01:22AM 46.1140 -77.0580 221° Southwest 481 554 36,000  Level FlightAware
01:23AM 46.0540 -77.1300 220° Southwest 481 554 36,000  Level FlightAware
01:23AM 46.0050 -77.1910 221° Southwest 481 554 36,000  Level FlightAware
01:24AM 45.9460 -77.2610 220° Southwest 481 554 36,000  Level FlightAware
01:25AM 45.8780 -77.3450 221° Southwest 481 554 36,000  Level FlightAware
01:25AM 45.8180 -77.4170 220° Southwest 482 555 36,000  Level FlightAware
01:26AM 45.7580 -77.4880 220° Southwest 483 556 36,000  Level FlightAware
01:26AM 45.7060 -77.5510 220° Southwest 484 557 36,000  Level FlightAware
01:27AM 45.6410 -77.6340 222° Southwest 481 554 36,000  Level FlightAware
01:27AM 45.5920 -77.7010 224° Southwest 482 555 36,000  Level FlightAware
01:28AM 45.5360 -77.7780 224° Southwest 483 556 36,000  Level FlightAware
01:29AM 45.4820 -77.8520 224° Southwest 484 557 36,000  Level FlightAware
01:29AM 45.3980 -77.9670 224° Southwest 488 562 36,000  Level FlightAware
01:30AM 45.3440 -78.0410 224° Southwest 488 562 36,000  Level FlightAware
01:30AM 45.2850 -78.1210 224° Southwest 489 563 36,000  Level FlightAware
01:31AM 45.2290 -78.1980 224° Southwest 490 564 36,000  Level FlightAware
01:32AM 45.1730 -78.2730 223° Southwest 491 565 36,000  Level FlightAware
01:32AM 45.1140 -78.3530 224° Southwest 492 566 36,000  Level FlightAware
01:33AM 45.0560 -78.4310 224° Southwest 493 567 36,000  Level FlightAware
01:33AM 44.9970 -78.5100 223° Southwest 493 567 36,000  Level FlightAware
01:34AM 44.9370 -78.5900 223° Southwest 494 568 36,000  Level FlightAware
01:35AM 44.8920 -78.6500 223° Southwest 495 570 36,000  Level FlightAware
01:35AM 44.8160 -78.7500 223° Southwest 495 570 36,000  Level FlightAware
01:36AM 44.7530 -78.8230 219° Southwest 501 577 36,000  Level FlightAware
01:36AM 44.6800 -78.8920 214° Southwest 504 580 36,000  Level FlightAware
01:37AM 44.6200 -78.9460 213° Southwest 505 581 36,000  Level FlightAware
01:38AM 44.5500 -79.0090 213° Southwest 505 581 36,000  Level FlightAware
01:38AM 44.4790 -79.0730 213° Southwest 506 582 36,000  Level FlightAware
01:39AM 44.4080 -79.1360 212° Southwest 506 582 36,000  Level FlightAware
01:39AM 44.3450 -79.1930 213° Southwest 506 582 36,000  Level FlightAware
01:40AM 44.2980 -79.2350 213° Southwest 506 582 36,000  Level FlightAware
01:40AM 44.2280 -79.2980 213° Southwest 506 582 36,000  Level FlightAware
01:41AM 44.1570 -79.3600 212° Southwest 508 585 36,000  Level FlightAware
01:42AM 44.0870 -79.4210 212° Southwest 509 586 36,000  Level FlightAware
01:42AM 44.0190 -79.4800 212° Southwest 509 586 36,000  Level FlightAware
01:43AM 43.9470 -79.5430 212° Southwest 510 587 36,000  Level FlightAware
01:43AM 43.8780 -79.6040 213° Southwest 510 587 36,000  Level FlightAware
01:44AM 43.8110 -79.6650 213° Southwest 509 586 36,000  Level FlightAware
01:45AM 43.7450 -79.7360 218° Southwest 508 585 36,000  Level FlightAware
01:45AM 43.6890 -79.8000 220° Southwest 508 585 36,000  Level FlightAware
01:46AM 43.6220 -79.8760 219° Southwest 508 585 36,000  Level FlightAware
01:46AM 43.5560 -79.9510 219° Southwest 508 585 36,000  Level FlightAware
01:47AM 43.4910 -80.0230 219° Southwest 508 585 36,000  Level FlightAware
01:47AM 43.4250 -80.0970 219° Southwest 508 585 36,000  Level FlightAware
01:48AM 43.3680 -80.1610 219° Southwest 507 583 36,000  Level FlightAware
01:49AM 43.3000 -80.2370 219° Southwest 507 583 36,000  Level FlightAware
01:49AM 43.2380 -80.3050 219° Southwest 507 583 36,000  Level FlightAware
01:50AM 43.1700 -80.3810 219° Southwest 506 582 36,000  Level FlightAware
01:50AM 43.1220 -80.4340 219° Southwest 505 581 36,000  Level FlightAware
01:51AM 43.0500 -80.5130 219° Southwest 504 580 36,000  Level FlightAware
01:52AM 42.9810 -80.5880 219° Southwest 502 578 36,000  Level FlightAware
01:52AM 42.9160 -80.6600 219° Southwest 500 575 36,000  Level FlightAware
01:53AM 42.8550 -80.7260 218° Southwest 500 575 36,000  Level FlightAware
01:53AM 42.7940 -80.7940 219° Southwest 498 573 36,000  Level FlightAware
01:54AM 42.7190 -80.8740 218° Southwest 498 573 36,000  Level FlightAware
01:55AM 42.6560 -80.9370 216° Southwest 497 572 36,000  Level FlightAware
01:55AM 42.5800 -81.0110 216° Southwest 497 572 36,000  Level FlightAware
01:56AM 42.5240 -81.0640 215° Southwest 496 571 36,000  Level FlightAware
01:56AM 42.4580 -81.1280 216° Southwest 497 572 36,000  Level FlightAware
01:57AM 42.3930 -81.1900 215° Southwest 497 572 36,000  Level FlightAware
01:58AM 42.3310 -81.2490 215° Southwest 497 572 36,000  Level FlightAware
01:58AM 42.2400 -81.3360 215° Southwest 498 573 36,000  Level FlightAware
01:59AM 42.1720 -81.4010 215° Southwest 499 574 36,000  Level FlightAware
01:59AM 42.1130 -81.4570 215° Southwest 498 573 36,000  Level FlightAware
02:00AM 42.0520 -81.5150 215° Southwest 498 573 36,000  Level FlightAware
02:00AM 41.9690 -81.5930 215° Southwest 499 574 36,000  Level FlightAware
02:01AM 41.9190 -81.6410 216° Southwest 498 573 36,000  Level FlightAware
02:02AM 41.8190 -81.7340 215° Southwest 498 573 36,000  Level FlightAware
02:02AM 41.7620 -81.7880 215° Southwest 496 571 36,000  Level FlightAware
02:03AM 41.6930 -81.8510 214° Southwest 496 571 36,000  Level FlightAware
02:04AM 41.6250 -81.9150 215° Southwest 496 571 36,000  Level FlightAware
02:04AM 41.5630 -81.9730 215° Southwest 495 570 36,000  Level FlightAware
02:05AM 41.4960 -82.0350 215° Southwest 495 570 36,000  Level FlightAware
02:05AM 41.4310 -82.1030 218° Southwest 492 566 36,000  Level FlightAware
02:06AM 41.3720 -82.1670 219° Southwest 491 565 36,000  Level FlightAware
02:06AM 41.3090 -82.2370 220° Southwest 492 566 36,000  Level FlightAware
02:07AM 41.2470 -82.3070 220° Southwest 491 565 36,000  Level FlightAware
02:08AM 41.1930 -82.3690 221° Southwest 490 564 36,000  Level FlightAware
02:08AM 41.1320 -82.4370 220° Southwest 489 563 36,000  Level FlightAware
02:09AM 41.0670 -82.5100 220° Southwest 489 563 36,000  Level FlightAware
02:09AM 41.0080 -82.5760 220° Southwest 488 562 36,000  Level FlightAware
02:10AM 40.9470 -82.6440 220° Southwest 487 560 36,000  Level FlightAware
02:11AM 40.8850 -82.7130 220° Southwest 486 559 36,000  Level FlightAware
02:11AM 40.8300 -82.7720 219° Southwest 486 559 36,000  Level FlightAware
02:12AM 40.7670 -82.8430 220° Southwest 486 559 36,000  Level FlightAware
02:12AM 40.7090 -82.9060 219° Southwest 486 559 36,000  Level FlightAware
02:13AM 40.6470 -82.9740 220° Southwest 486 559 36,000  Level FlightAware
02:13AM 40.5890 -83.0380 220° Southwest 486 559 36,000  Level FlightAware
02:14AM 40.5220 -83.1100 219° Southwest 486 559 36,000  Level FlightAware
02:15AM 40.4670 -83.1700 220° Southwest 485 558 36,000  Level FlightAware
02:15AM 40.4040 -83.2390 220° Southwest 486 559 36,000  Level FlightAware
02:16AM 40.3450 -83.3020 219° Southwest 487 560 36,000  Level FlightAware
02:16AM 40.2830 -83.3690 220° Southwest 486 559 36,000  Level FlightAware
02:17AM 40.2210 -83.4360 220° Southwest 486 559 36,000  Level FlightAware
02:17AM 40.1650 -83.4960 219° Southwest 487 560 36,000  Level FlightAware
02:18AM 40.1020 -83.5630 219° Southwest 486 559 36,000  Level FlightAware
02:19AM 40.0390 -83.6300 219° Southwest 488 562 36,000  Level FlightAware
02:19AM 39.9730 -83.6990 219° Southwest 488 562 36,000  Level FlightAware
02:20AM 39.9200 -83.7550 219° Southwest 488 562 36,000  Level FlightAware
02:20AM 39.8560 -83.8220 219° Southwest 489 563 36,000  Level FlightAware
02:21AM 39.7940 -83.8880 219° Southwest 489 563 36,000  Level FlightAware
02:22AM 39.7290 -83.9560 219° Southwest 489 563 36,000 -300 Level FlightAware
02:22AM 39.6750 -84.0130 219° Southwest 487 560 35,700 -1,620 Descending FlightAware
02:23AM 39.6100 -84.0800 218° Southwest 486 559 34,200 -2,520 Descending FlightAware
02:23AM 39.5480 -84.1450 219° Southwest 486 559 32,700 -2,700 Descending FlightAware
02:24AM 39.4910 -84.2040 219° Southwest 485 558 31,200 -2,700 Descending FlightAware
02:24AM 39.4280 -84.2690 219° Southwest 481 554 29,700 -2,340 Descending FlightAware
02:25AM 39.3660 -84.3330 219° Southwest 473 544 28,400 -2,220 Descending FlightAware
02:26AM 39.3110 -84.3900 219° Southwest 468 539 27,200 -2,280 Descending FlightAware
02:26AM 39.2540 -84.4480 218° Southwest 460 529 25,900 -2,340 Descending FlightAware
02:27AM 39.1900 -84.5140 219° Southwest 451 519 24,400 -2,520 Descending FlightAware
02:27AM 39.1290 -84.5770 219° Southwest 445 512 22,800 -2,460 Descending FlightAware
02:28AM 39.0740 -84.6320 218° Southwest 445 512 21,300 -2,640 Descending FlightAware
02:29AM 39.0240 -84.6830 218° Southwest 443 510 19,800 -2,820 Descending FlightAware
02:29AM 38.9630 -84.7460 219° Southwest 439 505 18,200 -2,640 Descending FlightAware
02:30AM 38.8990 -84.8110 218° Southwest 429 494 16,500 -2,580 Descending FlightAware
02:30AM 38.8430 -84.8680 218° Southwest 426 490 15,000 -1,920 Descending FlightAware
02:31AM 38.7930 -84.9190 218° Southwest 403 464 14,300 -1,260 Descending FlightAware
02:32AM 38.7360 -84.9750 217° Southwest 381 438 13,500 -1,440 Descending FlightAware
02:32AM 38.6940 -85.0150 217° Southwest 373 429 12,700 -1,500 Descending FlightAware
02:33AM 38.6420 -85.0640 216° Southwest 366 421 11,800 -780 Descending FlightAware
02:33AM 38.5970 -85.1080 217° Southwest 373 429 11,800 -120 Level FlightAware
02:34AM 38.5480 -85.1480 213° Southwest 370 426 11,700 -480 Descending FlightAware
02:34AM 38.4980 -85.1740 202° Southwest 349 402 11,300 -900 Descending FlightAware
02:35AM 38.4440 -85.2020 202° Southwest 331 381 10,700 -960 Descending FlightAware
02:36AM 38.3900 -85.2310 203° Southwest 314 361 10,100 -840 Descending FlightAware
02:36AM 38.3630 -85.2440 201° Southwest 306 352 9,900 -900 Descending FlightAware
02:36AM 38.3420 -85.2560 204° Southwest 301 346 9,600 -1,200 Descending FlightAware
02:37AM 38.3170 -85.2680 201° Southwest 300 345 9,200 -1,380 Descending FlightAware
02:37AM 38.2910 -85.2820 203° Southwest 299 344 8,700 -1,380 Descending FlightAware
02:37AM 38.2720 -85.2930 204° Southwest 297 342 8,400 -1,200 Descending FlightAware
02:37AM 38.2670 -85.2980 218° Southwest 294 338 8,300 -1,500 Descending FlightAware
02:37AM 38.2590 -85.3090 227° Southwest 289 333 8,100 -1,500 Descending FlightAware
02:38AM 38.2400 -85.3410 233° Southwest 284 327 7,500 -1,380 Descending FlightAware
02:38AM 38.2290 -85.3640 239° Southwest 278 320 7,200 -1,200 Descending FlightAware
02:39AM 38.2130 -85.3960 238° Southwest 272 313 6,700 -1,260 Descending FlightAware
02:39AM 38.2000 -85.4230 239° Southwest 269 310 6,300 -1,200 Descending FlightAware
02:39AM 38.1870 -85.4500 239° Southwest 265 305 5,900 -1,200 Descending FlightAware
02:40AM 38.1740 -85.4790 240° Southwest 252 290 5,500 -1,080 Descending FlightAware
02:40AM 38.1600 -85.5090 239° Southwest 232 267 5,100 -960 Descending FlightAware
02:40AM 38.1470 -85.5290 230° Southwest 218 251 4,800 -1,080 Descending FlightAware
02:41AM 38.1320 -85.5460 222° Southwest 209 241 4,400 -1,080 Descending FlightAware
02:41AM 38.1190 -85.5610 222° Southwest 202 232 4,100 -840 Descending FlightAware
02:41AM 38.1020 -85.5800 221° Southwest 195 224 3,800 -840 Descending FlightAware
02:42AM 38.0890 -85.5950 222° Southwest 189 217 3,500 -960 Descending FlightAware
02:42AM 38.0820 -85.6030 222° Southwest 188 216 3,300 -960 Descending FlightAware
02:42AM 38.0670 -85.6180 218° Southwest 182 209 3,000 -900 Descending FlightAware
02:42AM 38.0620 -85.6230 218° Southwest 182 209 2,900 -1,140 Descending FlightAware
02:42AM 38.0580 -85.6300 234° Southwest 182 209 2,700 -1,140 Descending FlightAware
02:43AM 38.0560 -85.6380 252° West 179 206 2,600 -540 Descending FlightAware
02:43AM 38.0560 -85.6420 270° West 177 204 2,600 -720 Level FlightAware
02:43AM 38.0570 -85.6630 273° West 171 197 2,300 -360 Descending FlightAware
02:43AM 38.0600 -85.6730 291° West 166 191 2,400 240 Climbing FlightAware
02:43AM 38.0660 -85.6830 307° West 170 196 2,400 -420 Level FlightAware
02:44AM 38.0770 -85.6910 330° Northwest 172 198 2,200 -900 Descending FlightAware
02:44AM 38.1020 -85.7020 341° North 169 194 1,700 -1,140 Descending FlightAware
02:45AM 38.1170 -85.7070 345° North 161 185 1,300 -900 Descending FlightAware
02:45AM 38.1320 -85.7120 345° North 163 188 1,100 -840 Descending FlightAware
02:45AM 38.1490 -85.7180 344° North 162 186 700 -960 Descending FlightAware
02:46AM 38.1630 -85.7230 344° North 149 171 400 -900 Descending FlightAware
02:46AM 38.1770 -85.7280 344° North 105 121 -1,140 Descending FlightAware